Time;durP1;ratioP1;P1;durP2;ratioP2;P2;SDS_P1;SDS_P2;PMS_P1;PMS_P2;Temp;Humidity;BMP_temperature;BMP_pressure;BME280_temperature;BME280_humidity;BME280_pressure;Samples;Min_cycle;Max_cycle;Signal;HPM_P1;HPM_P2
2021/10/31 00:01:54;;;;;;;32.53;22.40;;;;;;;;;;5048339;28;20072;-71
2021/10/31 00:04:19;;;;;;;32.58;22.50;;;;;;;;;;5046572;28;20474;-71
2021/10/31 00:06:44;;;;;;;31.48;23.10;;;;;;;;;;5044857;28;20021;-70
2021/10/31 00:09:09;;;;;;;31.27;22.80;;;;;;;;;;5042714;28;20027;-72
2021/10/31 00:11:35;;;;;;;35.08;23.13;;;;;;;;;;5044218;28;20052;-70
2021/10/31 00:14:01;;;;;;;33.35;22.75;;;;;;;;;;5042318;28;20017;-71
2021/10/31 00:16:26;;;;;;;31.90;22.00;;;;;;;;;;5040992;28;20021;-71
2021/10/31 00:18:51;;;;;;;31.95;22.10;;;;;;;;;;5045182;28;20043;-70
2021/10/31 00:21:16;;;;;;;32.78;21.90;;;;;;;;;;5041619;28;20500;-71
2021/10/31 00:23:41;;;;;;;34.55;22.63;;;;;;;;;;5048657;28;20044;-71
2021/10/31 00:26:07;;;;;;;29.75;22.02;;;;;;;;;;5040596;28;20116;-71
2021/10/31 00:28:32;;;;;;;30.35;21.23;;;;;;;;;;5042488;28;20056;-71
2021/10/31 00:30:57;;;;;;;30.88;21.10;;;;;;;;;;5041068;28;20035;-71
2021/10/31 00:33:22;;;;;;;28.50;21.23;;;;;;;;;;5048959;28;20048;-71
2021/10/31 00:35:48;;;;;;;31.33;21.17;;;;;;;;;;5038802;28;20487;-72
2021/10/31 00:38:13;;;;;;;32.25;22.50;;;;;;;;;;5044600;28;20089;-72
2021/10/31 00:40:38;;;;;;;30.52;22.10;;;;;;;;;;5038220;28;20025;-72
2021/10/31 00:43:03;;;;;;;29.85;21.65;;;;;;;;;;5045844;28;20055;-69
2021/10/31 00:45:29;;;;;;;28.77;20.42;;;;;;;;;;5040725;28;20092;-71
2021/10/31 00:47:54;;;;;;;30.42;21.38;;;;;;;;;;5041336;28;20083;-71
2021/10/31 00:50:20;;;;;;;27.95;19.75;;;;;;;;;;5048577;28;20435;-70
2021/10/31 00:52:45;;;;;;;27.63;19.88;;;;;;;;;;5040244;28;20071;-71
2021/10/31 00:55:11;;;;;;;28.00;20.10;;;;;;;;;;5038290;28;20029;-71
2021/10/31 00:57:37;;;;;;;28.25;19.70;;;;;;;;;;5034748;28;20045;-71
2021/10/31 01:00:03;;;;;;;31.77;20.75;;;;;;;;;;5045003;28;20032;-71
2021/10/31 01:02:29;;;;;;;32.65;21.95;;;;;;;;;;5049903;28;20070;-71
2021/10/31 01:04:55;;;;;;;29.38;19.77;;;;;;;;;;5049175;28;20043;-70
2021/10/31 01:07:26;;;;;;;29.13;19.92;;;;;;;;;;5045074;28;20013;-70
2021/10/31 01:10:12;;;;;;;27.05;19.80;;;;;;;;;;5046121;28;20044;-71
2021/10/31 01:12:43;;;;;;;28.38;19.77;;;;;;;;;;5036907;28;20047;-70
2021/10/31 01:15:14;;;;;;;30.83;21.60;;;;;;;;;;5027379;28;20037;-71
2021/10/31 01:17:45;;;;;;;29.83;20.70;;;;;;;;;;5029763;28;20033;-70
2021/10/31 01:20:28;;;;;;;26.70;19.13;;;;;;;;;;5033530;28;20025;-70
2021/10/31 01:23:03;;;;;;;30.25;20.15;;;;;;;;;;5033176;28;20123;-70
2021/10/31 01:25:36;;;;;;;27.48;19.80;;;;;;;;;;5031531;28;20021;-71
2021/10/31 01:28:21;;;;;;;23.85;17.38;;;;;;;;;;5034666;28;20025;-70
2021/10/31 01:31:01;;;;;;;24.90;17.33;;;;;;;;;;5028790;28;20099;-69
2021/10/31 01:33:45;;;;;;;26.13;17.90;;;;;;;;;;5034084;28;20052;-70
2021/10/31 01:36:17;;;;;;;24.48;18.08;;;;;;;;;;5035927;28;20916;-71
2021/10/31 01:39:01;;;;;;;21.70;16.23;;;;;;;;;;5014914;28;20043;-70
2021/10/31 01:41:37;;;;;;;24.15;16.08;;;;;;;;;;5043052;28;20029;-70
2021/10/31 01:44:24;;;;;;;20.17;14.85;;;;;;;;;;5039272;28;20037;-71
2021/10/31 01:47:02;;;;;;;18.45;13.52;;;;;;;;;;5029308;28;20028;-70
2021/10/31 01:49:46;;;;;;;18.35;13.45;;;;;;;;;;5037374;28;20044;-71
2021/10/31 01:52:13;;;;;;;19.25;14.05;;;;;;;;;;5040267;28;20044;-71
2021/10/31 01:54:43;;;;;;;20.08;13.95;;;;;;;;;;5046449;28;20024;-71
2021/10/31 01:57:11;;;;;;;16.42;12.27;;;;;;;;;;5050362;28;20040;-69
2021/10/31 01:59:46;;;;;;;15.55;12.10;;;;;;;;;;5050158;28;20392;-70
2021/10/31 02:02:12;;;;;;;19.30;12.80;;;;;;;;;;5053953;28;20032;-71
2021/10/31 02:04:38;;;;;;;17.45;12.15;;;;;;;;;;5049925;28;20037;-71
2021/10/31 02:07:04;;;;;;;17.35;11.00;;;;;;;;;;5048351;28;20040;-70
2021/10/31 02:09:31;;;;;;;14.88;10.70;;;;;;;;;;5039870;28;20025;-70
2021/10/31 02:11:56;;;;;;;16.08;11.20;;;;;;;;;;5050069;28;20021;-71
2021/10/31 02:14:22;;;;;;;15.88;11.13;;;;;;;;;;5049558;28;20365;-71
2021/10/31 02:16:48;;;;;;;17.17;10.73;;;;;;;;;;5045780;28;20548;-70
2021/10/31 02:19:16;;;;;;;16.30;10.40;;;;;;;;;;5039214;28;20048;-71
2021/10/31 02:21:42;;;;;;;15.13;10.48;;;;;;;;;;5049271;28;20817;-71
2021/10/31 02:24:08;;;;;;;15.90;10.73;;;;;;;;;;5049459;28;20435;-71
2021/10/31 02:26:37;;;;;;;13.73;10.15;;;;;;;;;;5040472;28;20025;-71
2021/10/31 02:29:06;;;;;;;13.13;9.52;;;;;;;;;;5050917;28;20024;-71
2021/10/31 02:31:31;;;;;;;15.95;10.43;;;;;;;;;;5044741;28;20026;-71
2021/10/31 02:33:57;;;;;;;14.63;10.02;;;;;;;;;;5047524;28;20145;-71
2021/10/31 02:36:23;;;;;;;15.25;10.27;;;;;;;;;;5044972;28;20024;-70
2021/10/31 02:38:48;;;;;;;13.57;9.88;;;;;;;;;;5045499;28;20104;-70
2021/10/31 02:41:13;;;;;;;14.27;10.02;;;;;;;;;;5047758;28;20031;-71
2021/10/31 02:43:38;;;;;;;15.77;10.20;;;;;;;;;;5045557;28;21770;-70
2021/10/31 02:46:04;;;;;;;13.50;9.10;;;;;;;;;;5048775;28;20499;-70
2021/10/31 02:48:30;;;;;;;14.40;10.38;;;;;;;;;;5044953;28;20051;-70
2021/10/31 02:50:57;;;;;;;11.65;8.65;;;;;;;;;;5044238;28;21459;-70
2021/10/31 02:53:33;;;;;;;13.63;8.75;;;;;;;;;;5041716;28;20082;-69
2021/10/31 02:56:18;;;;;;;13.65;8.88;;;;;;;;;;5047406;28;20105;-70
2021/10/31 02:58:50;;;;;;;14.02;8.55;;;;;;;;;;5033426;28;20514;-70
2021/10/31 03:01:16;;;;;;;12.40;8.80;;;;;;;;;;5047501;28;20033;-71
2021/10/31 03:03:42;;;;;;;11.32;7.70;;;;;;;;;;5049488;28;20526;-71
2021/10/31 03:06:08;;;;;;;11.55;8.50;;;;;;;;;;5047078;28;20029;-71
2021/10/31 03:08:33;;;;;;;11.75;8.38;;;;;;;;;;5048265;28;20460;-70
2021/10/31 03:11:03;;;;;;;11.13;7.97;;;;;;;;;;5042795;28;20048;-71
2021/10/31 03:13:28;;;;;;;11.20;7.50;;;;;;;;;;5039610;28;20037;-70
2021/10/31 03:15:54;;;;;;;10.50;6.88;;;;;;;;;;5047076;28;20063;-70
2021/10/31 03:18:19;;;;;;;13.63;7.97;;;;;;;;;;5047628;28;20017;-70
2021/10/31 03:20:45;;;;;;;13.00;9.10;;;;;;;;;;5038453;28;20395;-71
2021/10/31 03:23:10;;;;;;;11.82;8.25;;;;;;;;;;5040872;28;20136;-70
2021/10/31 03:25:35;;;;;;;10.45;8.13;;;;;;;;;;5046917;28;20036;-70
2021/10/31 03:28:01;;;;;;;12.07;8.60;;;;;;;;;;5046772;28;20021;-70
2021/10/31 03:30:26;;;;;;;12.02;8.85;;;;;;;;;;5044633;28;20029;-71
2021/10/31 03:32:51;;;;;;;11.27;7.80;;;;;;;;;;5049614;28;20029;-71
2021/10/31 03:35:16;;;;;;;12.52;7.93;;;;;;;;;;5049518;28;20025;-70
2021/10/31 03:37:42;;;;;;;11.15;7.82;;;;;;;;;;5045831;28;20021;-70
2021/10/31 03:40:08;;;;;;;11.15;7.47;;;;;;;;;;5051359;28;20010;-69
2021/10/31 03:42:33;;;;;;;13.52;8.52;;;;;;;;;;5050455;28;20036;-71
2021/10/31 03:44:58;;;;;;;11.20;8.50;;;;;;;;;;5047620;28;20041;-70
2021/10/31 03:47:26;;;;;;;12.73;8.43;;;;;;;;;;5044107;28;20021;-70
2021/10/31 03:49:51;;;;;;;11.10;8.20;;;;;;;;;;5047103;28;20025;-70
2021/10/31 03:52:16;;;;;;;12.10;8.45;;;;;;;;;;5043615;28;20032;-70
2021/10/31 03:54:41;;;;;;;11.10;7.28;;;;;;;;;;5047740;28;20055;-70
2021/10/31 03:57:07;;;;;;;11.73;8.10;;;;;;;;;;5044992;28;20033;-70
2021/10/31 03:59:32;;;;;;;10.25;7.10;;;;;;;;;;5040751;28;20077;-70
2021/10/31 04:01:57;;;;;;;9.93;6.60;;;;;;;;;;5043245;28;20033;-69
2021/10/31 04:04:23;;;;;;;10.25;7.57;;;;;;;;;;5048098;28;20086;-71
2021/10/31 04:06:48;;;;;;;11.20;8.10;;;;;;;;;;5042054;28;20033;-71
2021/10/31 04:09:13;;;;;;;12.52;7.70;;;;;;;;;;5040220;28;20029;-70
2021/10/31 04:11:38;;;;;;;9.50;7.35;;;;;;;;;;5045076;28;20021;-70
2021/10/31 04:14:04;;;;;;;9.90;7.65;;;;;;;;;;5040014;28;20020;-71
2021/10/31 04:16:29;;;;;;;9.82;6.97;;;;;;;;;;5044893;28;20021;-70
2021/10/31 04:18:54;;;;;;;8.65;6.60;;;;;;;;;;5049520;28;20016;-70
2021/10/31 04:21:20;;;;;;;7.97;6.13;;;;;;;;;;5040977;28;20071;-70
2021/10/31 04:23:46;;;;;;;10.35;6.18;;;;;;;;;;5038057;28;20494;-70
2021/10/31 04:26:11;;;;;;;9.45;6.50;;;;;;;;;;5044486;28;20032;-70
2021/10/31 04:28:36;;;;;;;12.43;8.10;;;;;;;;;;5045951;28;20541;-70
2021/10/31 04:31:01;;;;;;;9.75;7.10;;;;;;;;;;5042062;28;20108;-70
2021/10/31 04:33:27;;;;;;;10.10;6.70;;;;;;;;;;5047056;28;20037;-70
2021/10/31 04:35:52;;;;;;;8.00;5.82;;;;;;;;;;5039661;28;20063;-70
2021/10/31 04:38:20;;;;;;;6.65;4.93;;;;;;;;;;5041013;28;20108;-70
2021/10/31 04:40:46;;;;;;;6.57;4.82;;;;;;;;;;5041005;28;20103;-72
2021/10/31 04:43:11;;;;;;;7.63;5.07;;;;;;;;;;5043933;28;20115;-70
2021/10/31 04:45:41;;;;;;;7.95;5.22;;;;;;;;;;5043780;28;20021;-70
2021/10/31 04:48:07;;;;;;;7.50;5.13;;;;;;;;;;5051104;28;20021;-71
2021/10/31 04:50:32;;;;;;;8.60;4.75;;;;;;;;;;5046762;28;20389;-71
2021/10/31 04:52:58;;;;;;;7.20;5.07;;;;;;;;;;5044926;28;20388;-70
2021/10/31 04:55:23;;;;;;;8.20;4.97;;;;;;;;;;5044561;28;20029;-70
2021/10/31 04:57:48;;;;;;;10.23;6.00;;;;;;;;;;5038338;28;20051;-69
2021/10/31 05:00:14;;;;;;;6.90;5.03;;;;;;;;;;5036990;28;20083;-71
2021/10/31 05:02:39;;;;;;;9.00;5.50;;;;;;;;;;5034951;28;20078;-71
2021/10/31 05:05:04;;;;;;;8.23;5.10;;;;;;;;;;5037375;28;20045;-70
2021/10/31 05:07:30;;;;;;;8.07;4.93;;;;;;;;;;5042875;28;20508;-69
2021/10/31 05:09:55;;;;;;;9.25;5.32;;;;;;;;;;5044352;28;20094;-69
2021/10/31 05:12:22;;;;;;;6.50;4.93;;;;;;;;;;5043723;28;20017;-71
2021/10/31 05:14:47;;;;;;;6.65;4.90;;;;;;;;;;5045343;28;20632;-70
2021/10/31 05:17:12;;;;;;;5.95;4.45;;;;;;;;;;5046476;28;20250;-70
2021/10/31 05:19:37;;;;;;;8.00;4.68;;;;;;;;;;5047954;28;20393;-70
2021/10/31 05:22:03;;;;;;;7.32;4.80;;;;;;;;;;5046633;28;20025;-70
2021/10/31 05:24:28;;;;;;;6.95;4.75;;;;;;;;;;5046564;28;20040;-71
2021/10/31 05:26:53;;;;;;;6.13;4.22;;;;;;;;;;5044807;28;20490;-71
2021/10/31 05:29:18;;;;;;;6.47;4.55;;;;;;;;;;5050769;28;20025;-69
2021/10/31 05:31:43;;;;;;;7.50;5.03;;;;;;;;;;5042772;28;20488;-70
2021/10/31 05:34:10;;;;;;;7.15;4.22;;;;;;;;;;5042355;28;20033;-71
2021/10/31 05:36:36;;;;;;;6.15;4.30;;;;;;;;;;5045561;28;20029;-68
2021/10/31 05:39:01;;;;;;;7.65;4.55;;;;;;;;;;5043190;28;20032;-70
2021/10/31 05:41:26;;;;;;;6.85;4.80;;;;;;;;;;5051783;28;20033;-70
2021/10/31 05:43:51;;;;;;;9.13;4.93;;;;;;;;;;5051035;28;20047;-70
2021/10/31 05:46:17;;;;;;;7.82;4.60;;;;;;;;;;5050653;28;20115;-69
2021/10/31 05:48:42;;;;;;;8.38;4.88;;;;;;;;;;5053479;28;20029;-69
2021/10/31 05:51:07;;;;;;;6.85;4.45;;;;;;;;;;5045570;28;20469;-68
2021/10/31 05:53:32;;;;;;;7.75;4.20;;;;;;;;;;5042525;28;20030;-69
2021/10/31 05:55:58;;;;;;;6.75;4.60;;;;;;;;;;5045417;28;20047;-70
2021/10/31 05:58:23;;;;;;;7.25;4.78;;;;;;;;;;5048903;28;20087;-71
2021/10/31 06:00:48;;;;;;;7.65;5.15;;;;;;;;;;5043146;28;20477;-70
2021/10/31 06:03:14;;;;;;;5.85;4.00;;;;;;;;;;5050406;28;20378;-70
2021/10/31 06:05:43;;;;;;;6.85;4.70;;;;;;;;;;5046197;28;20063;-71
2021/10/31 06:08:13;;;;;;;7.20;4.60;;;;;;;;;;5042999;28;20026;-71
2021/10/31 06:10:38;;;;;;;6.93;4.60;;;;;;;;;;5044449;28;20111;-69
2021/10/31 06:13:03;;;;;;;7.30;4.72;;;;;;;;;;5041041;28;20029;-70
2021/10/31 06:15:29;;;;;;;6.07;4.22;;;;;;;;;;5043515;28;20029;-70
2021/10/31 06:17:54;;;;;;;5.53;3.95;;;;;;;;;;5041860;28;20582;-71
2021/10/31 06:20:19;;;;;;;5.95;4.22;;;;;;;;;;5047013;28;20032;-70
2021/10/31 06:22:44;;;;;;;6.90;4.05;;;;;;;;;;5036228;28;20070;-69
2021/10/31 06:25:10;;;;;;;7.13;4.40;;;;;;;;;;5041440;28;20063;-69
2021/10/31 06:27:35;;;;;;;7.43;4.90;;;;;;;;;;5036856;28;20391;-68
2021/10/31 06:30:01;;;;;;;6.88;3.85;;;;;;;;;;5036858;28;20508;-70
2021/10/31 06:32:26;;;;;;;6.57;3.97;;;;;;;;;;5039664;28;20045;-69
2021/10/31 06:34:51;;;;;;;5.75;3.55;;;;;;;;;;5037345;28;20056;-69
2021/10/31 06:37:17;;;;;;;5.88;3.75;;;;;;;;;;5040402;28;20035;-70
2021/10/31 06:39:42;;;;;;;5.55;3.70;;;;;;;;;;5039344;28;20147;-70
2021/10/31 06:42:07;;;;;;;6.07;3.97;;;;;;;;;;5039746;28;20064;-70
2021/10/31 06:44:32;;;;;;;6.13;3.90;;;;;;;;;;5042112;28;20052;-70
2021/10/31 06:46:58;;;;;;;6.00;3.97;;;;;;;;;;5038687;28;20017;-70
2021/10/31 06:49:23;;;;;;;6.13;3.85;;;;;;;;;;5041624;28;20022;-70
2021/10/31 06:51:48;;;;;;;6.75;4.07;;;;;;;;;;5034468;28;20032;-69
2021/10/31 06:54:15;;;;;;;4.93;3.70;;;;;;;;;;5044451;28;20020;-69
2021/10/31 06:56:40;;;;;;;6.20;4.05;;;;;;;;;;5039825;28;20079;-69
2021/10/31 06:59:05;;;;;;;6.80;3.88;;;;;;;;;;5038536;28;20048;-71
2021/10/31 07:01:31;;;;;;;8.43;4.65;;;;;;;;;;5041251;28;20037;-69
2021/10/31 07:03:56;;;;;;;7.05;4.82;;;;;;;;;;5048891;28;20040;-70
2021/10/31 07:06:21;;;;;;;7.35;4.68;;;;;;;;;;5046582;28;20017;-70
2021/10/31 07:08:46;;;;;;;6.07;4.10;;;;;;;;;;5041430;28;20036;-70
2021/10/31 07:11:12;;;;;;;6.90;4.00;;;;;;;;;;5040906;28;20393;-70
2021/10/31 07:13:37;;;;;;;6.97;4.93;;;;;;;;;;5048305;28;20055;-70
2021/10/31 07:16:02;;;;;;;6.43;4.15;;;;;;;;;;5045817;28;20028;-69
2021/10/31 07:18:28;;;;;;;6.70;4.10;;;;;;;;;;5046171;28;20029;-70
2021/10/31 07:20:53;;;;;;;5.90;4.00;;;;;;;;;;5047044;28;20033;-70
2021/10/31 07:23:18;;;;;;;5.90;3.90;;;;;;;;;;5042783;28;20025;-70
2021/10/31 07:25:43;;;;;;;6.50;3.53;;;;;;;;;;5045264;28;20440;-70
2021/10/31 07:28:09;;;;;;;5.10;3.42;;;;;;;;;;5045595;28;20045;-69
2021/10/31 07:30:34;;;;;;;5.03;3.20;;;;;;;;;;5044797;28;20039;-70
2021/10/31 07:33:00;;;;;;;4.55;3.25;;;;;;;;;;5046748;28;20491;-69
2021/10/31 07:35:26;;;;;;;5.20;3.30;;;;;;;;;;5046961;28;20438;-69
2021/10/31 07:37:51;;;;;;;5.13;3.17;;;;;;;;;;5039596;28;20049;-70
2021/10/31 07:40:17;;;;;;;6.72;3.63;;;;;;;;;;5047726;28;20070;-71
2021/10/31 07:42:42;;;;;;;7.47;3.22;;;;;;;;;;5047070;28;20488;-69
2021/10/31 07:45:08;;;;;;;7.15;3.25;;;;;;;;;;5047074;28;20472;-70
2021/10/31 07:47:33;;;;;;;5.32;2.72;;;;;;;;;;5036401;28;20037;-71
2021/10/31 07:49:58;;;;;;;4.25;2.70;;;;;;;;;;5042023;28;20377;-70
2021/10/31 07:52:24;;;;;;;8.10;5.25;;;;;;;;;;5043761;28;20067;-65
2021/10/31 07:54:49;;;;;;;9.60;6.03;;;;;;;;;;5048979;28;20480;-66
2021/10/31 07:57:17;;;;;;;14.50;8.07;;;;;;;;;;5047005;28;20147;-67
2021/10/31 07:59:42;;;;;;;10.30;6.82;;;;;;;;;;5039859;28;20163;-66
2021/10/31 08:02:07;;;;;;;7.85;3.80;;;;;;;;;;5040185;28;20060;-66
2021/10/31 08:04:33;;;;;;;7.80;4.88;;;;;;;;;;5038969;28;20121;-65
2021/10/31 08:06:58;;;;;;;6.57;3.42;;;;;;;;;;5044057;28;20100;-66
2021/10/31 08:09:23;;;;;;;6.03;3.85;;;;;;;;;;5045465;28;20440;-64
2021/10/31 08:11:49;;;;;;;5.35;3.58;;;;;;;;;;5045978;28;20024;-66
2021/10/31 08:14:14;;;;;;;5.88;3.17;;;;;;;;;;5045140;28;20032;-61
2021/10/31 08:16:39;;;;;;;4.57;3.30;;;;;;;;;;5042532;28;20029;-61
2021/10/31 08:19:05;;;;;;;3.78;2.75;;;;;;;;;;5045934;28;20056;-62
2021/10/31 08:21:31;;;;;;;5.15;3.22;;;;;;;;;;5046644;28;20473;-63
2021/10/31 08:23:56;;;;;;;5.47;3.17;;;;;;;;;;5037391;28;20041;-62
2021/10/31 08:26:21;;;;;;;4.00;2.75;;;;;;;;;;5046932;28;20021;-63
2021/10/31 08:28:48;;;;;;;5.68;2.97;;;;;;;;;;5047862;28;20599;-62
2021/10/31 08:31:16;;;;;;;5.70;3.10;;;;;;;;;;5045038;28;20055;-64
2021/10/31 08:33:45;;;;;;;5.50;3.17;;;;;;;;;;5046099;28;20024;-63
2021/10/31 08:36:12;;;;;;;4.30;3.15;;;;;;;;;;5044791;28;20432;-62
2021/10/31 08:38:37;;;;;;;6.32;3.00;;;;;;;;;;5043458;28;20572;-63
2021/10/31 08:41:03;;;;;;;4.70;2.90;;;;;;;;;;5043094;28;20055;-61
2021/10/31 08:43:28;;;;;;;4.53;2.60;;;;;;;;;;5046711;28;20065;-63
2021/10/31 08:45:54;;;;;;;4.32;2.47;;;;;;;;;;5041289;28;20936;-62
2021/10/31 08:48:20;;;;;;;4.35;2.63;;;;;;;;;;5044117;28;20028;-62
2021/10/31 08:50:46;;;;;;;4.53;2.92;;;;;;;;;;5039916;28;20357;-61
2021/10/31 08:53:11;;;;;;;3.53;2.50;;;;;;;;;;5041725;28;20025;-62
2021/10/31 08:55:39;;;;;;;5.00;2.83;;;;;;;;;;5045533;28;20017;-61
2021/10/31 08:58:05;;;;;;;4.68;2.53;;;;;;;;;;5047838;28;20053;-64
2021/10/31 09:00:30;;;;;;;3.55;2.40;;;;;;;;;;5041029;28;20029;-61
2021/10/31 09:02:56;;;;;;;5.07;2.63;;;;;;;;;;5048109;28;20828;-63
2021/10/31 09:05:21;;;;;;;3.70;2.35;;;;;;;;;;5048797;28;20029;-62
2021/10/31 09:07:46;;;;;;;3.22;2.35;;;;;;;;;;5046598;28;20075;-63
2021/10/31 09:10:11;;;;;;;3.80;2.60;;;;;;;;;;5048619;28;20020;-62
2021/10/31 09:12:37;;;;;;;4.18;2.33;;;;;;;;;;5048259;28;20025;-61
2021/10/31 09:15:02;;;;;;;4.93;2.45;;;;;;;;;;5048014;28;20229;-62
2021/10/31 09:17:28;;;;;;;4.70;2.60;;;;;;;;;;5047131;28;20040;-61
2021/10/31 09:19:53;;;;;;;4.07;2.30;;;;;;;;;;5047311;28;20036;-62
2021/10/31 09:22:18;;;;;;;4.68;2.72;;;;;;;;;;5043099;28;20069;-62
2021/10/31 09:24:43;;;;;;;4.85;2.83;;;;;;;;;;5048662;28;20029;-61
2021/10/31 09:27:08;;;;;;;3.53;2.40;;;;;;;;;;5040816;28;20021;-62
2021/10/31 09:29:34;;;;;;;4.00;2.47;;;;;;;;;;5047237;28;20389;-62
2021/10/31 09:31:59;;;;;;;3.80;2.40;;;;;;;;;;5046039;28;20025;-62
2021/10/31 09:34:27;;;;;;;4.45;1.90;;;;;;;;;;5048149;28;20032;-62
2021/10/31 09:36:53;;;;;;;4.30;2.35;;;;;;;;;;5043057;28;20017;-62
2021/10/31 09:39:18;;;;;;;3.80;2.40;;;;;;;;;;5047425;28;20385;-62
2021/10/31 09:41:44;;;;;;;3.42;2.25;;;;;;;;;;5042104;28;20105;-63
2021/10/31 09:44:20;;;;;;;3.28;2.17;;;;;;;;;;5045818;28;20065;-63
2021/10/31 09:46:46;;;;;;;3.63;1.67;;;;;;;;;;5041914;28;20510;-63
2021/10/31 09:49:11;;;;;;;3.28;1.70;;;;;;;;;;5041972;28;20021;-62
2021/10/31 09:51:37;;;;;;;5.40;1.80;;;;;;;;;;5044078;28;20027;-62
2021/10/31 09:54:02;;;;;;;3.00;1.77;;;;;;;;;;5046876;28;20100;-62
2021/10/31 09:56:28;;;;;;;3.10;1.88;;;;;;;;;;5042122;28;20028;-62
2021/10/31 09:58:58;;;;;;;4.18;1.60;;;;;;;;;;5046383;28;20068;-62
2021/10/31 10:01:23;;;;;;;;;;;;;;;;;;5046289;28;20021;-61
2021/10/31 10:03:55;;;;;;;2.63;1.92;;;;;;;;;;5046198;28;19920;-61
2021/10/31 10:06:22;;;;;;;3.00;1.60;;;;;;;;;;5045266;28;20037;-62
2021/10/31 10:08:57;;;;;;;3.72;1.60;;;;;;;;;;5046907;28;20516;-62
2021/10/31 10:11:22;;;;;;;2.53;1.67;;;;;;;;;;5041974;28;20381;-62
2021/10/31 10:13:47;;;;;;;2.28;1.45;;;;;;;;;;5045406;28;20060;-62
2021/10/31 10:16:24;;;;;;;3.97;1.83;;;;;;;;;;5043187;28;20032;-62
2021/10/31 10:18:49;;;;;;;2.33;1.67;;;;;;;;;;5050859;28;20025;-61
2021/10/31 10:21:28;;;;;;;3.53;2.30;;;;;;;;;;5049917;28;20078;-61
2021/10/31 10:23:55;;;;;;;3.38;2.17;;;;;;;;;;5046855;28;20070;-62
2021/10/31 10:26:25;;;;;;;3.63;2.05;;;;;;;;;;5047728;28;20032;-62
2021/10/31 10:28:51;;;;;;;3.65;1.90;;;;;;;;;;5045142;28;20036;-62
2021/10/31 10:31:24;;;;;;;2.72;1.70;;;;;;;;;;5049345;28;20046;-62
2021/10/31 10:33:50;;;;;;;2.40;1.67;;;;;;;;;;5037678;28;20741;-63
2021/10/31 10:36:16;;;;;;;3.30;1.80;;;;;;;;;;5042292;28;20017;-63
2021/10/31 10:38:43;;;;;;;3.42;1.60;;;;;;;;;;5042534;28;20037;-64
2021/10/31 10:41:28;;;;;;;2.53;1.65;;;;;;;;;;5049889;28;20437;-64
2021/10/31 10:43:54;;;;;;;2.63;1.35;;;;;;;;;;5050116;28;20054;-62
2021/10/31 10:46:21;;;;;;;4.82;1.83;;;;;;;;;;5049667;28;20025;-61
2021/10/31 10:48:53;;;;;;;2.63;1.73;;;;;;;;;;5048419;28;20033;-62
2021/10/31 10:51:18;;;;;;;3.58;1.83;;;;;;;;;;5048978;28;20033;-62
2021/10/31 10:53:44;;;;;;;2.60;1.60;;;;;;;;;;5050222;28;20021;-61
2021/10/31 10:56:09;;;;;;;3.28;2.00;;;;;;;;;;5048128;28;20394;-61
2021/10/31 10:58:34;;;;;;;2.97;1.80;;;;;;;;;;5043404;28;20044;-62
2021/10/31 11:01:00;;;;;;;2.85;1.38;;;;;;;;;;5045986;28;20101;-62
2021/10/31 11:03:29;;;;;;;2.85;1.63;;;;;;;;;;5045055;28;20049;-63
2021/10/31 11:06:04;;;;;;;2.22;1.42;;;;;;;;;;5049731;28;20408;-61
2021/10/31 11:08:29;;;;;;;2.20;1.48;;;;;;;;;;5044025;28;20020;-62
2021/10/31 11:11:05;;;;;;;2.30;1.38;;;;;;;;;;5044365;28;20490;-61
2021/10/31 11:13:30;;;;;;;3.38;1.60;;;;;;;;;;5042200;28;20108;-62
2021/10/31 11:15:56;;;;;;;2.75;1.30;;;;;;;;;;5047912;28;20382;-62
2021/10/31 11:18:22;;;;;;;2.85;1.60;;;;;;;;;;5048551;28;20147;-62
2021/10/31 11:20:47;;;;;;;4.68;1.80;;;;;;;;;;5040090;28;20108;-63
2021/10/31 11:23:14;;;;;;;5.30;1.65;;;;;;;;;;5045098;28;20476;-62
2021/10/31 11:25:41;;;;;;;1.70;1.50;;;;;;;;;;5043098;28;20017;-63
2021/10/31 11:28:08;;;;;;;3.25;1.80;;;;;;;;;;5047389;28;20032;-62
2021/10/31 11:30:34;;;;;;;3.78;1.80;;;;;;;;;;5048259;28;20060;-62
2021/10/31 11:33:00;;;;;;;2.95;1.67;;;;;;;;;;5049943;28;20017;-62
2021/10/31 11:35:26;;;;;;;2.63;1.52;;;;;;;;;;5047472;28;20469;-61
2021/10/31 11:38:00;;;;;;;2.10;1.48;;;;;;;;;;5043328;28;20159;-61
2021/10/31 11:40:28;;;;;;;4.10;2.10;;;;;;;;;;5043327;28;20028;-63
2021/10/31 11:42:53;;;;;;;2.50;1.63;;;;;;;;;;5050133;28;20025;-62
2021/10/31 11:45:21;;;;;;;2.70;1.70;;;;;;;;;;5042387;28;20501;-62
2021/10/31 11:48:07;;;;;;;3.00;1.85;;;;;;;;;;5050226;28;20025;-62
2021/10/31 11:50:34;;;;;;;3.38;1.65;;;;;;;;;;5036118;28;20025;-63
2021/10/31 11:53:00;;;;;;;2.85;1.90;;;;;;;;;;5047176;28;20044;-61
2021/10/31 11:55:25;;;;;;;3.72;1.70;;;;;;;;;;5046290;28;20376;-62
2021/10/31 11:58:10;;;;;;;3.05;2.03;;;;;;;;;;5044466;28;20052;-62
2021/10/31 12:00:48;;;;;;;2.40;1.90;;;;;;;;;;5047269;28;20124;-62
2021/10/31 12:03:36;;;;;;;4.20;1.90;;;;;;;;;;5032768;28;20049;-63
2021/10/31 12:06:22;;;;;;;3.17;1.90;;;;;;;;;;5046955;28;20501;-62
2021/10/31 12:08:53;;;;;;;5.13;1.85;;;;;;;;;;5043634;28;20272;-62
2021/10/31 12:11:19;;;;;;;2.20;1.65;;;;;;;;;;5041482;28;20038;-63
2021/10/31 12:13:44;;;;;;;3.92;1.85;;;;;;;;;;5043354;28;20769;-62
2021/10/31 12:16:12;;;;;;;2.42;1.60;;;;;;;;;;5039834;28;20060;-63
2021/10/31 12:18:45;;;;;;;3.05;1.70;;;;;;;;;;5054185;28;20085;-63
2021/10/31 12:21:36;;;;;;;2.22;1.63;;;;;;;;;;5045756;28;20714;-62
2021/10/31 12:24:09;;;;;;;2.72;1.63;;;;;;;;;;5047271;28;20056;-63
2021/10/31 12:26:34;;;;;;;4.63;1.70;;;;;;;;;;5048078;28;20036;-63
2021/10/31 12:29:12;;;;;;;3.85;1.77;;;;;;;;;;5046757;28;20489;-62
2021/10/31 12:31:38;;;;;;;2.80;1.92;;;;;;;;;;5047264;28;20028;-63
2021/10/31 12:34:13;;;;;;;3.75;1.92;;;;;;;;;;5047066;28;20102;-61
2021/10/31 12:36:43;;;;;;;3.30;1.95;;;;;;;;;;5047762;28;20029;-62
2021/10/31 12:39:27;;;;;;;2.97;1.98;;;;;;;;;;5047611;28;20037;-63
2021/10/31 12:42:11;;;;;;;3.10;1.63;;;;;;;;;;5046140;28;20424;-66
2021/10/31 12:44:36;;;;;;;4.15;2.00;;;;;;;;;;5048055;28;20067;-61
2021/10/31 12:47:03;;;;;;;3.90;1.90;;;;;;;;;;5044362;28;20757;-63
2021/10/31 12:49:28;;;;;;;2.95;1.88;;;;;;;;;;5047565;28;20025;-63
2021/10/31 12:52:03;;;;;;;2.33;1.60;;;;;;;;;;5038930;28;20017;-62
2021/10/31 12:54:37;;;;;;;2.88;2.08;;;;;;;;;;5048311;28;20388;-62
2021/10/31 12:57:08;;;;;;;3.15;2.00;;;;;;;;;;5044055;28;20025;-63
2021/10/31 12:59:41;;;;;;;4.03;1.98;;;;;;;;;;5042715;28;20048;-62
2021/10/31 13:02:07;;;;;;;2.90;1.75;;;;;;;;;;5046150;28;20049;-62
2021/10/31 13:04:45;;;;;;;2.83;1.90;;;;;;;;;;5045608;28;20102;-64
2021/10/31 13:07:11;;;;;;;3.33;1.90;;;;;;;;;;5047528;28;20147;-62
2021/10/31 13:09:37;;;;;;;2.63;1.73;;;;;;;;;;5045224;28;20116;-62
2021/10/31 13:12:03;;;;;;;2.95;1.67;;;;;;;;;;5043277;28;20171;-63
2021/10/31 13:14:32;;;;;;;2.80;1.80;;;;;;;;;;5044644;28;20032;-63
2021/10/31 13:16:58;;;;;;;2.65;1.67;;;;;;;;;;5043441;28;20025;-62
2021/10/31 13:19:24;;;;;;;3.63;1.60;;;;;;;;;;5045812;28;20392;-62
2021/10/31 13:21:56;;;;;;;3.83;1.85;;;;;;;;;;5043120;28;20024;-65
2021/10/31 13:24:22;;;;;;;3.13;1.83;;;;;;;;;;5043502;28;20155;-63
2021/10/31 13:26:47;;;;;;;3.47;1.70;;;;;;;;;;5048402;28;20088;-62
2021/10/31 13:29:12;;;;;;;6.78;1.80;;;;;;;;;;5043832;28;20554;-61
2021/10/31 13:31:37;;;;;;;3.15;1.58;;;;;;;;;;5047233;28;20487;-61
2021/10/31 13:34:07;;;;;;;2.67;1.50;;;;;;;;;;5047246;28;20055;-60
2021/10/31 13:36:35;;;;;;;2.35;1.65;;;;;;;;;;5048021;28;20279;-62
2021/10/31 13:39:03;;;;;;;3.88;1.70;;;;;;;;;;5047960;28;20047;-63
2021/10/31 13:41:37;;;;;;;2.40;1.60;;;;;;;;;;5044840;28;20020;-62
2021/10/31 13:44:23;;;;;;;2.42;1.67;;;;;;;;;;5045035;28;20028;-62
2021/10/31 13:47:04;;;;;;;2.65;1.38;;;;;;;;;;5042018;28;20370;-61
2021/10/31 13:49:44;;;;;;;2.58;1.60;;;;;;;;;;5045711;28;20465;-62
2021/10/31 13:52:10;;;;;;;2.88;1.65;;;;;;;;;;5046315;28;20032;-63
2021/10/31 13:54:35;;;;;;;2.10;1.50;;;;;;;;;;5048206;28;20021;-62
2021/10/31 13:57:01;;;;;;;2.95;1.60;;;;;;;;;;5049755;28;20789;-62
2021/10/31 13:59:26;;;;;;;2.45;1.60;;;;;;;;;;5045479;28;20033;-62
2021/10/31 14:01:57;;;;;;;2.13;1.52;;;;;;;;;;5048580;28;20024;-62
2021/10/31 14:04:29;;;;;;;1.88;1.42;;;;;;;;;;5046592;28;20385;-62
2021/10/31 14:07:09;;;;;;;3.70;1.67;;;;;;;;;;5048879;28;20051;-65
2021/10/31 14:09:48;;;;;;;2.30;1.70;;;;;;;;;;5050707;28;20028;-62
2021/10/31 14:12:39;;;;;;;3.60;1.77;;;;;;;;;;5047345;28;20112;-63
2021/10/31 14:15:09;;;;;;;2.15;1.50;;;;;;;;;;5043584;28;20020;-64
2021/10/31 14:17:34;;;;;;;;;;;;;;;;;;5049707;28;20507;-63
2021/10/31 14:19:59;;;;;;;2.87;1.90;;;;;;;;;;5051445;28;19909;-62
2021/10/31 14:22:26;;;;;;;2.72;1.70;;;;;;;;;;5044242;28;20544;-62
2021/10/31 14:25:06;;;;;;;2.25;1.67;;;;;;;;;;5042348;28;20037;-63
2021/10/31 14:27:32;;;;;;;2.50;1.80;;;;;;;;;;5042909;28;20029;-61
2021/10/31 14:30:16;;;;;;;2.80;1.73;;;;;;;;;;5047499;28;20032;-62
2021/10/31 14:32:52;;;;;;;3.33;1.77;;;;;;;;;;5050425;28;20017;-63
2021/10/31 14:35:17;;;;;;;4.47;1.90;;;;;;;;;;5046640;28;20039;-61
2021/10/31 14:38:02;;;;;;;2.75;2.00;;;;;;;;;;5043732;28;20041;-64
2021/10/31 14:40:28;;;;;;;4.18;2.08;;;;;;;;;;5043561;28;20025;-63
2021/10/31 14:43:11;;;;;;;3.40;2.10;;;;;;;;;;5050810;28;20078;-61